sensor_id;sensor_type;location;lat;lon;timestamp;temperature;humidity
10042;DHT22;5061;49.068;12.058;2022-11-06T00:00:54;6.60;99.90
10042;DHT22;5061;49.068;12.058;2022-11-06T00:04:15;6.50;99.90
10042;DHT22;5061;49.068;12.058;2022-11-06T00:07:38;6.50;99.90
10042;DHT22;5061;49.068;12.058;2022-11-06T00:10:59;6.50;99.90
10042;DHT22;5061;49.068;12.058;2022-11-06T00:14:20;6.50;99.90
10042;DHT22;5061;49.068;12.058;2022-11-06T00:17:41;6.50;99.90
10042;DHT22;5061;49.068;12.058;2022-11-06T00:21:06;6.50;99.90
10042;DHT22;5061;49.068;12.058;2022-11-06T00:24:27;6.50;99.90
10042;DHT22;5061;49.068;12.058;2022-11-06T00:27:48;6.40;99.90
10042;DHT22;5061;49.068;12.058;2022-11-06T00:31:14;6.40;99.90
10042;DHT22;5061;49.068;12.058;2022-11-06T00:34:35;6.40;99.90
10042;DHT22;5061;49.068;12.058;2022-11-06T00:37:58;6.30;99.90
10042;DHT22;5061;49.068;12.058;2022-11-06T00:41:20;6.30;99.90
10042;DHT22;5061;49.068;12.058;2022-11-06T00:44:41;6.20;99.90
10042;DHT22;5061;49.068;12.058;2022-11-06T00:48:02;6.20;99.90
10042;DHT22;5061;49.068;12.058;2022-11-06T00:51:31;6.10;99.90
10042;DHT22;5061;49.068;12.058;2022-11-06T00:54:52;6.10;99.90
10042;DHT22;5061;49.068;12.058;2022-11-06T00:58:13;6.10;99.90
10042;DHT22;5061;49.068;12.058;2022-11-06T01:01:40;6.10;99.90
10042;DHT22;5061;49.068;12.058;2022-11-06T01:05:03;6.10;99.90
10042;DHT22;5061;49.068;12.058;2022-11-06T01:08:24;6.10;99.90
10042;DHT22;5061;49.068;12.058;2022-11-06T01:11:47;6.10;99.90
10042;DHT22;5061;49.068;12.058;2022-11-06T01:15:09;6.10;99.90
10042;DHT22;5061;49.068;12.058;2022-11-06T01:18:30;6.00;99.90
10042;DHT22;5061;49.068;12.058;2022-11-06T01:21:53;6.00;99.90
10042;DHT22;5061;49.068;12.058;2022-11-06T01:25:14;5.90;99.90
10042;DHT22;5061;49.068;12.058;2022-11-06T01:28:35;5.90;99.90
10042;DHT22;5061;49.068;12.058;2022-11-06T01:31:55;5.90;99.90
10042;DHT22;5061;49.068;12.058;2022-11-06T01:35:16;5.90;99.90
10042;DHT22;5061;49.068;12.058;2022-11-06T01:38:40;5.90;99.90
10042;DHT22;5061;49.068;12.058;2022-11-06T01:42:01;5.80;99.90
10042;DHT22;5061;49.068;12.058;2022-11-06T01:45:28;5.80;99.90
10042;DHT22;5061;49.068;12.058;2022-11-06T01:48:58;5.80;99.90
10042;DHT22;5061;49.068;12.058;2022-11-06T01:52:19;5.70;99.90
10042;DHT22;5061;49.068;12.058;2022-11-06T01:55:44;5.70;99.90
10042;DHT22;5061;49.068;12.058;2022-11-06T01:59:07;5.70;99.90
10042;DHT22;5061;49.068;12.058;2022-11-06T02:02:28;5.70;99.90
10042;DHT22;5061;49.068;12.058;2022-11-06T02:05:49;5.60;99.90
10042;DHT22;5061;49.068;12.058;2022-11-06T02:09:10;5.60;99.90
10042;DHT22;5061;49.068;12.058;2022-11-06T02:16:15;5.50;99.90
10042;DHT22;5061;49.068;12.058;2022-11-06T02:19:50;5.50;99.90
10042;DHT22;5061;49.068;12.058;2022-11-06T02:30:13;5.50;99.90
10042;DHT22;5061;49.068;12.058;2022-11-06T02:33:37;5.40;99.90
10042;DHT22;5061;49.068;12.058;2022-11-06T02:37:03;5.30;99.90
10042;DHT22;5061;49.068;12.058;2022-11-06T02:40:27;5.20;99.90
10042;DHT22;5061;49.068;12.058;2022-11-06T02:43:55;5.10;99.90
10042;DHT22;5061;49.068;12.058;2022-11-06T02:47:18;5.00;99.90
10042;DHT22;5061;49.068;12.058;2022-11-06T02:50:44;5.10;99.90
10042;DHT22;5061;49.068;12.058;2022-11-06T02:54:07;5.20;99.90
10042;DHT22;5061;49.068;12.058;2022-11-06T02:57:33;5.10;99.90
10042;DHT22;5061;49.068;12.058;2022-11-06T03:01:03;5.10;99.90
10042;DHT22;5061;49.068;12.058;2022-11-06T03:04:40;5.00;99.90
10042;DHT22;5061;49.068;12.058;2022-11-06T03:08:30;5.00;99.90
10042;DHT22;5061;49.068;12.058;2022-11-06T03:12:20;5.00;99.90
10042;DHT22;5061;49.068;12.058;2022-11-06T03:15:52;4.90;99.90
10042;DHT22;5061;49.068;12.058;2022-11-06T03:19:46;4.90;99.90
10042;DHT22;5061;49.068;12.058;2022-11-06T03:23:15;4.80;99.90
10042;DHT22;5061;49.068;12.058;2022-11-06T03:26:44;4.80;99.90
10042;DHT22;5061;49.068;12.058;2022-11-06T03:30:08;4.80;99.90
10042;DHT22;5061;49.068;12.058;2022-11-06T03:33:39;4.90;99.90
10042;DHT22;5061;49.068;12.058;2022-11-06T03:37:06;5.00;99.90
10042;DHT22;5061;49.068;12.058;2022-11-06T03:40:31;4.90;99.90
10042;DHT22;5061;49.068;12.058;2022-11-06T03:43:55;4.90;99.90
10042;DHT22;5061;49.068;12.058;2022-11-06T03:47:24;4.90;99.90
10042;DHT22;5061;49.068;12.058;2022-11-06T03:51:03;4.80;99.90
10042;DHT22;5061;49.068;12.058;2022-11-06T03:54:30;4.80;99.90
10042;DHT22;5061;49.068;12.058;2022-11-06T03:57:57;4.80;99.90
10042;DHT22;5061;49.068;12.058;2022-11-06T04:01:26;4.80;99.90
10042;DHT22;5061;49.068;12.058;2022-11-06T04:04:54;4.80;99.90
10042;DHT22;5061;49.068;12.058;2022-11-06T04:08:16;4.70;99.90
10042;DHT22;5061;49.068;12.058;2022-11-06T04:12:00;4.70;99.90
10042;DHT22;5061;49.068;12.058;2022-11-06T04:15:50;4.80;99.90
10042;DHT22;5061;49.068;12.058;2022-11-06T04:19:20;4.80;99.90
10042;DHT22;5061;49.068;12.058;2022-11-06T04:22:57;4.80;99.90
10042;DHT22;5061;49.068;12.058;2022-11-06T04:26:25;4.80;99.90
10042;DHT22;5061;49.068;12.058;2022-11-06T04:30:08;4.90;99.90
10042;DHT22;5061;49.068;12.058;2022-11-06T04:33:44;4.90;99.90
10042;DHT22;5061;49.068;12.058;2022-11-06T04:37:20;4.90;99.90
10042;DHT22;5061;49.068;12.058;2022-11-06T04:40:55;4.90;99.90
10042;DHT22;5061;49.068;12.058;2022-11-06T04:47:46;4.90;99.90
10042;DHT22;5061;49.068;12.058;2022-11-06T04:51:09;5.00;99.90
10042;DHT22;5061;49.068;12.058;2022-11-06T04:54:31;4.90;99.90
10042;DHT22;5061;49.068;12.058;2022-11-06T04:57:52;5.00;99.90
10042;DHT22;5061;49.068;12.058;2022-11-06T05:01:13;5.00;99.90
10042;DHT22;5061;49.068;12.058;2022-11-06T05:04:33;5.00;99.90
10042;DHT22;5061;49.068;12.058;2022-11-06T05:07:54;5.00;99.90
10042;DHT22;5061;49.068;12.058;2022-11-06T05:11:16;5.00;99.90
10042;DHT22;5061;49.068;12.058;2022-11-06T05:14:40;5.00;99.90
10042;DHT22;5061;49.068;12.058;2022-11-06T05:18:00;5.00;99.90
10042;DHT22;5061;49.068;12.058;2022-11-06T05:21:22;5.00;99.90
10042;DHT22;5061;49.068;12.058;2022-11-06T05:25:02;5.00;99.90
10042;DHT22;5061;49.068;12.058;2022-11-06T05:28:23;5.10;99.90
10042;DHT22;5061;49.068;12.058;2022-11-06T05:31:44;5.10;99.90
10042;DHT22;5061;49.068;12.058;2022-11-06T05:35:05;5.10;99.90
10042;DHT22;5061;49.068;12.058;2022-11-06T05:38:25;5.00;99.90
10042;DHT22;5061;49.068;12.058;2022-11-06T05:41:49;5.10;99.90
10042;DHT22;5061;49.068;12.058;2022-11-06T05:45:10;5.10;99.90
10042;DHT22;5061;49.068;12.058;2022-11-06T05:48:32;5.10;99.90
10042;DHT22;5061;49.068;12.058;2022-11-06T05:51:53;5.10;99.90
10042;DHT22;5061;49.068;12.058;2022-11-06T05:55:14;5.10;99.90
10042;DHT22;5061;49.068;12.058;2022-11-06T05:58:36;5.10;99.90
10042;DHT22;5061;49.068;12.058;2022-11-06T06:01:57;5.10;99.90
10042;DHT22;5061;49.068;12.058;2022-11-06T06:05:19;5.20;99.90
10042;DHT22;5061;49.068;12.058;2022-11-06T06:08:40;5.20;99.90
10042;DHT22;5061;49.068;12.058;2022-11-06T06:12:01;5.20;99.90
10042;DHT22;5061;49.068;12.058;2022-11-06T06:15:21;5.20;99.90
10042;DHT22;5061;49.068;12.058;2022-11-06T06:18:42;5.30;99.90
10042;DHT22;5061;49.068;12.058;2022-11-06T06:22:04;5.30;99.90
10042;DHT22;5061;49.068;12.058;2022-11-06T06:25:26;5.30;99.90
10042;DHT22;5061;49.068;12.058;2022-11-06T06:28:48;5.30;99.90
10042;DHT22;5061;49.068;12.058;2022-11-06T06:32:08;5.40;99.90
10042;DHT22;5061;49.068;12.058;2022-11-06T06:35:29;5.40;99.90
10042;DHT22;5061;49.068;12.058;2022-11-06T06:38:50;5.40;99.90
10042;DHT22;5061;49.068;12.058;2022-11-06T06:42:11;5.40;99.90
10042;DHT22;5061;49.068;12.058;2022-11-06T06:45:33;5.50;99.90
10042;DHT22;5061;49.068;12.058;2022-11-06T06:48:54;5.50;99.90
10042;DHT22;5061;49.068;12.058;2022-11-06T06:52:16;5.50;99.90
10042;DHT22;5061;49.068;12.058;2022-11-06T06:55:36;5.50;99.90
10042;DHT22;5061;49.068;12.058;2022-11-06T06:58:57;5.60;99.90
10042;DHT22;5061;49.068;12.058;2022-11-06T07:02:19;5.60;99.90
10042;DHT22;5061;49.068;12.058;2022-11-06T07:05:40;5.60;99.90
10042;DHT22;5061;49.068;12.058;2022-11-06T07:09:00;5.60;99.90
10042;DHT22;5061;49.068;12.058;2022-11-06T07:12:21;5.60;99.90
10042;DHT22;5061;49.068;12.058;2022-11-06T07:15:42;5.70;99.90
10042;DHT22;5061;49.068;12.058;2022-11-06T07:19:02;5.70;99.90
10042;DHT22;5061;49.068;12.058;2022-11-06T07:22:26;5.70;99.90
10042;DHT22;5061;49.068;12.058;2022-11-06T07:25:53;5.80;99.90
10042;DHT22;5061;49.068;12.058;2022-11-06T07:29:17;5.80;99.90
10042;DHT22;5061;49.068;12.058;2022-11-06T07:32:37;5.80;99.90
10042;DHT22;5061;49.068;12.058;2022-11-06T07:36:06;5.80;99.90
10042;DHT22;5061;49.068;12.058;2022-11-06T07:39:27;5.80;99.90
10042;DHT22;5061;49.068;12.058;2022-11-06T07:42:47;5.90;99.90
10042;DHT22;5061;49.068;12.058;2022-11-06T07:46:10;5.90;99.90
10042;DHT22;5061;49.068;12.058;2022-11-06T07:49:30;5.90;99.90
10042;DHT22;5061;49.068;12.058;2022-11-06T07:52:52;5.90;99.90
10042;DHT22;5061;49.068;12.058;2022-11-06T07:56:12;5.90;99.90
10042;DHT22;5061;49.068;12.058;2022-11-06T07:59:33;5.90;99.90
10042;DHT22;5061;49.068;12.058;2022-11-06T08:02:54;5.90;99.90
10042;DHT22;5061;49.068;12.058;2022-11-06T08:06:15;5.90;99.90
10042;DHT22;5061;49.068;12.058;2022-11-06T08:09:36;5.90;99.90
10042;DHT22;5061;49.068;12.058;2022-11-06T08:12:59;5.90;99.90
10042;DHT22;5061;49.068;12.058;2022-11-06T08:16:19;5.90;99.90
10042;DHT22;5061;49.068;12.058;2022-11-06T08:19:40;5.90;99.90
10042;DHT22;5061;49.068;12.058;2022-11-06T08:23:02;5.90;99.90
10042;DHT22;5061;49.068;12.058;2022-11-06T08:26:23;6.00;99.90
10042;DHT22;5061;49.068;12.058;2022-11-06T08:29:44;6.00;99.90
10042;DHT22;5061;49.068;12.058;2022-11-06T08:33:06;6.00;99.90
10042;DHT22;5061;49.068;12.058;2022-11-06T08:36:27;6.00;99.90
10042;DHT22;5061;49.068;12.058;2022-11-06T08:39:48;6.10;99.90
10042;DHT22;5061;49.068;12.058;2022-11-06T08:43:09;6.10;99.90
10042;DHT22;5061;49.068;12.058;2022-11-06T08:46:30;6.20;99.90
10042;DHT22;5061;49.068;12.058;2022-11-06T08:49:50;6.20;99.90
10042;DHT22;5061;49.068;12.058;2022-11-06T08:53:11;6.20;99.90
10042;DHT22;5061;49.068;12.058;2022-11-06T08:56:31;6.30;99.90
10042;DHT22;5061;49.068;12.058;2022-11-06T08:59:52;6.20;99.90
10042;DHT22;5061;49.068;12.058;2022-11-06T09:03:15;6.30;99.90
10042;DHT22;5061;49.068;12.058;2022-11-06T09:06:38;6.20;99.90
10042;DHT22;5061;49.068;12.058;2022-11-06T09:10:02;6.30;99.90
10042;DHT22;5061;49.068;12.058;2022-11-06T09:13:23;6.30;99.90
10042;DHT22;5061;49.068;12.058;2022-11-06T09:16:44;6.30;99.90
10042;DHT22;5061;49.068;12.058;2022-11-06T09:20:05;6.30;99.90
10042;DHT22;5061;49.068;12.058;2022-11-06T09:23:28;6.40;99.90
10042;DHT22;5061;49.068;12.058;2022-11-06T09:26:49;6.40;99.90
10042;DHT22;5061;49.068;12.058;2022-11-06T09:30:11;6.40;99.90
10042;DHT22;5061;49.068;12.058;2022-11-06T09:33:32;6.50;99.90
10042;DHT22;5061;49.068;12.058;2022-11-06T09:37:01;6.50;99.90
10042;DHT22;5061;49.068;12.058;2022-11-06T09:40:25;6.60;99.90
10042;DHT22;5061;49.068;12.058;2022-11-06T09:47:38;6.70;99.90
10042;DHT22;5061;49.068;12.058;2022-11-06T09:54:52;6.70;99.90
10042;DHT22;5061;49.068;12.058;2022-11-06T09:58:20;6.80;99.90
10042;DHT22;5061;49.068;12.058;2022-11-06T10:02:03;6.90;99.90
10042;DHT22;5061;49.068;12.058;2022-11-06T10:05:35;6.90;99.90
10042;DHT22;5061;49.068;12.058;2022-11-06T10:08:59;6.90;99.90
10042;DHT22;5061;49.068;12.058;2022-11-06T10:12:34;7.00;99.90
10042;DHT22;5061;49.068;12.058;2022-11-06T10:16:24;7.00;99.90
10042;DHT22;5061;49.068;12.058;2022-11-06T10:19:58;7.00;99.90
10042;DHT22;5061;49.068;12.058;2022-11-06T10:26:55;7.10;99.90
10042;DHT22;5061;49.068;12.058;2022-11-06T10:30:18;7.20;99.90
10042;DHT22;5061;49.068;12.058;2022-11-06T10:33:58;7.20;99.90
10042;DHT22;5061;49.068;12.058;2022-11-06T10:37:25;7.30;99.90
10042;DHT22;5061;49.068;12.058;2022-11-06T10:40:48;7.30;99.90
10042;DHT22;5061;49.068;12.058;2022-11-06T10:44:21;7.30;99.90
10042;DHT22;5061;49.068;12.058;2022-11-06T10:47:54;7.40;99.90
10042;DHT22;5061;49.068;12.058;2022-11-06T10:58:30;7.30;99.90
10042;DHT22;5061;49.068;12.058;2022-11-06T11:01:53;7.30;99.90
10042;DHT22;5061;49.068;12.058;2022-11-06T11:05:17;7.30;99.90
10042;DHT22;5061;49.068;12.058;2022-11-06T11:08:48;7.30;99.90
10042;DHT22;5061;49.068;12.058;2022-11-06T11:12:29;7.30;99.90
10042;DHT22;5061;49.068;12.058;2022-11-06T11:15:50;7.20;99.90
10042;DHT22;5061;49.068;12.058;2022-11-06T11:19:15;7.30;99.90
10042;DHT22;5061;49.068;12.058;2022-11-06T11:22:36;7.30;99.90
10042;DHT22;5061;49.068;12.058;2022-11-06T11:26:10;7.40;99.90
10042;DHT22;5061;49.068;12.058;2022-11-06T11:29:49;7.40;99.90
10042;DHT22;5061;49.068;12.058;2022-11-06T11:33:12;7.50;99.90
10042;DHT22;5061;49.068;12.058;2022-11-06T11:36:58;7.50;99.90
10042;DHT22;5061;49.068;12.058;2022-11-06T11:43:42;7.60;99.90
10042;DHT22;5061;49.068;12.058;2022-11-06T11:47:19;7.60;99.90
10042;DHT22;5061;49.068;12.058;2022-11-06T11:50:40;7.70;99.90
10042;DHT22;5061;49.068;12.058;2022-11-06T11:54:05;7.80;99.90
10042;DHT22;5061;49.068;12.058;2022-11-06T11:57:26;7.80;99.90
10042;DHT22;5061;49.068;12.058;2022-11-06T12:00:57;7.80;99.90
10042;DHT22;5061;49.068;12.058;2022-11-06T12:04:20;7.90;99.90
10042;DHT22;5061;49.068;12.058;2022-11-06T12:07:52;7.90;99.90
10042;DHT22;5061;49.068;12.058;2022-11-06T12:11:19;8.00;99.90
10042;DHT22;5061;49.068;12.058;2022-11-06T12:14:40;8.10;99.90
10042;DHT22;5061;49.068;12.058;2022-11-06T12:18:10;8.10;99.90
10042;DHT22;5061;49.068;12.058;2022-11-06T12:21:34;8.20;99.90
10042;DHT22;5061;49.068;12.058;2022-11-06T12:25:24;8.20;99.90
10042;DHT22;5061;49.068;12.058;2022-11-06T12:29:15;8.30;99.90
10042;DHT22;5061;49.068;12.058;2022-11-06T12:32:58;8.40;99.90
10042;DHT22;5061;49.068;12.058;2022-11-06T12:36:23;8.40;99.90
10042;DHT22;5061;49.068;12.058;2022-11-06T12:39:52;8.50;99.90
10042;DHT22;5061;49.068;12.058;2022-11-06T12:43:24;8.60;99.90
10042;DHT22;5061;49.068;12.058;2022-11-06T12:53:44;8.70;99.90
10042;DHT22;5061;49.068;12.058;2022-11-06T12:57:27;8.70;99.90
10042;DHT22;5061;49.068;12.058;2022-11-06T13:00:58;8.70;99.90
10042;DHT22;5061;49.068;12.058;2022-11-06T13:04:48;8.80;99.90
10042;DHT22;5061;49.068;12.058;2022-11-06T13:08:55;8.80;99.90
10042;DHT22;5061;49.068;12.058;2022-11-06T13:23:49;8.90;99.90
10042;DHT22;5061;49.068;12.058;2022-11-06T13:30:43;8.90;99.90
10042;DHT22;5061;49.068;12.058;2022-11-06T13:34:05;9.00;99.90
10042;DHT22;5061;49.068;12.058;2022-11-06T13:37:38;8.90;99.90
10042;DHT22;5061;49.068;12.058;2022-11-06T13:41:05;8.90;99.90
10042;DHT22;5061;49.068;12.058;2022-11-06T13:44:27;8.80;99.90
10042;DHT22;5061;49.068;12.058;2022-11-06T14:02:43;8.70;99.90
10042;DHT22;5061;49.068;12.058;2022-11-06T14:06:15;8.70;99.90
10042;DHT22;5061;49.068;12.058;2022-11-06T14:09:43;8.70;99.90
10042;DHT22;5061;49.068;12.058;2022-11-06T14:13:05;8.80;99.90
10042;DHT22;5061;49.068;12.058;2022-11-06T14:16:29;8.80;99.90
10042;DHT22;5061;49.068;12.058;2022-11-06T14:26:49;8.70;99.90
10042;DHT22;5061;49.068;12.058;2022-11-06T14:40:38;8.70;99.90
10042;DHT22;5061;49.068;12.058;2022-11-06T14:47:48;8.60;99.90
10042;DHT22;5061;49.068;12.058;2022-11-06T14:51:25;8.60;99.90
10042;DHT22;5061;49.068;12.058;2022-11-06T14:58:21;8.50;99.90
10042;DHT22;5061;49.068;12.058;2022-11-06T15:01:56;8.50;99.90
10042;DHT22;5061;49.068;12.058;2022-11-06T15:05:17;8.40;99.90
10042;DHT22;5061;49.068;12.058;2022-11-06T15:12:07;8.30;99.90
10042;DHT22;5061;49.068;12.058;2022-11-06T15:15:28;8.20;99.90
10042;DHT22;5061;49.068;12.058;2022-11-06T15:18:52;8.20;99.90
10042;DHT22;5061;49.068;12.058;2022-11-06T15:22:27;8.10;99.90
10042;DHT22;5061;49.068;12.058;2022-11-06T15:26:19;8.00;99.90
10042;DHT22;5061;49.068;12.058;2022-11-06T15:29:44;8.00;99.90
10042;DHT22;5061;49.068;12.058;2022-11-06T15:33:09;7.90;99.90
10042;DHT22;5061;49.068;12.058;2022-11-06T15:36:39;7.80;99.90
10042;DHT22;5061;49.068;12.058;2022-11-06T15:40:00;7.80;99.90
10042;DHT22;5061;49.068;12.058;2022-11-06T15:43:32;7.70;99.90
10042;DHT22;5061;49.068;12.058;2022-11-06T15:46:56;7.60;99.90
10042;DHT22;5061;49.068;12.058;2022-11-06T15:50:40;7.60;99.90
10042;DHT22;5061;49.068;12.058;2022-11-06T15:53:59;7.50;99.90
10042;DHT22;5061;49.068;12.058;2022-11-06T15:57:26;7.40;99.90
10042;DHT22;5061;49.068;12.058;2022-11-06T16:00:47;7.40;99.90
10042;DHT22;5061;49.068;12.058;2022-11-06T16:04:15;7.30;99.90
10042;DHT22;5061;49.068;12.058;2022-11-06T16:07:37;7.30;99.90
10042;DHT22;5061;49.068;12.058;2022-11-06T16:10:59;7.20;99.90
10042;DHT22;5061;49.068;12.058;2022-11-06T16:14:26;7.20;99.90
10042;DHT22;5061;49.068;12.058;2022-11-06T16:17:47;7.10;99.90
10042;DHT22;5061;49.068;12.058;2022-11-06T16:21:23;7.00;99.90
10042;DHT22;5061;49.068;12.058;2022-11-06T16:24:54;7.00;99.90
10042;DHT22;5061;49.068;12.058;2022-11-06T16:28:20;6.90;99.90
10042;DHT22;5061;49.068;12.058;2022-11-06T16:31:42;6.80;99.90
10042;DHT22;5061;49.068;12.058;2022-11-06T16:35:29;6.80;99.90
10042;DHT22;5061;49.068;12.058;2022-11-06T16:38:52;6.70;99.90
10042;DHT22;5061;49.068;12.058;2022-11-06T16:42:31;6.70;99.90
10042;DHT22;5061;49.068;12.058;2022-11-06T16:46:05;6.60;99.90
10042;DHT22;5061;49.068;12.058;2022-11-06T16:49:38;6.60;99.90
10042;DHT22;5061;49.068;12.058;2022-11-06T16:52:59;6.50;99.90
10042;DHT22;5061;49.068;12.058;2022-11-06T16:56:28;6.50;99.90
10042;DHT22;5061;49.068;12.058;2022-11-06T16:59:55;6.40;99.90
10042;DHT22;5061;49.068;12.058;2022-11-06T17:03:19;6.40;99.90
10042;DHT22;5061;49.068;12.058;2022-11-06T17:06:43;6.40;99.90
10042;DHT22;5061;49.068;12.058;2022-11-06T17:10:36;6.30;99.90
10042;DHT22;5061;49.068;12.058;2022-11-06T17:14:07;6.30;99.90
10042;DHT22;5061;49.068;12.058;2022-11-06T17:17:30;6.20;99.90
10042;DHT22;5061;49.068;12.058;2022-11-06T17:20:58;6.20;99.90
10042;DHT22;5061;49.068;12.058;2022-11-06T17:24:19;6.10;99.90
10042;DHT22;5061;49.068;12.058;2022-11-06T17:27:40;6.10;99.90
10042;DHT22;5061;49.068;12.058;2022-11-06T17:31:04;6.10;99.90
10042;DHT22;5061;49.068;12.058;2022-11-06T17:34:25;6.10;99.90
10042;DHT22;5061;49.068;12.058;2022-11-06T17:37:45;6.10;99.90
10042;DHT22;5061;49.068;12.058;2022-11-06T17:41:06;6.20;99.90
10042;DHT22;5061;49.068;12.058;2022-11-06T17:44:28;6.10;99.90
10042;DHT22;5061;49.068;12.058;2022-11-06T17:47:52;6.10;99.90
10042;DHT22;5061;49.068;12.058;2022-11-06T17:51:13;6.10;99.90
10042;DHT22;5061;49.068;12.058;2022-11-06T17:54:52;6.20;99.90
10042;DHT22;5061;49.068;12.058;2022-11-06T17:58:13;6.10;99.90
10042;DHT22;5061;49.068;12.058;2022-11-06T18:01:34;6.20;99.90
10042;DHT22;5061;49.068;12.058;2022-11-06T18:04:55;6.20;99.90
10042;DHT22;5061;49.068;12.058;2022-11-06T18:08:15;6.20;99.90
10042;DHT22;5061;49.068;12.058;2022-11-06T18:11:36;6.30;99.90
10042;DHT22;5061;49.068;12.058;2022-11-06T18:14:56;6.20;99.90
10042;DHT22;5061;49.068;12.058;2022-11-06T18:18:18;6.30;99.90
10042;DHT22;5061;49.068;12.058;2022-11-06T18:21:38;6.20;99.90
10042;DHT22;5061;49.068;12.058;2022-11-06T18:24:59;6.30;99.90
10042;DHT22;5061;49.068;12.058;2022-11-06T18:28:20;6.30;99.90
10042;DHT22;5061;49.068;12.058;2022-11-06T18:31:40;6.30;99.90
10042;DHT22;5061;49.068;12.058;2022-11-06T18:35:01;6.30;99.90
10042;DHT22;5061;49.068;12.058;2022-11-06T18:38:23;6.30;99.90
10042;DHT22;5061;49.068;12.058;2022-11-06T18:41:43;6.30;99.90
10042;DHT22;5061;49.068;12.058;2022-11-06T18:45:05;6.30;99.90
10042;DHT22;5061;49.068;12.058;2022-11-06T18:48:26;6.30;99.90
10042;DHT22;5061;49.068;12.058;2022-11-06T18:51:46;6.30;99.90
10042;DHT22;5061;49.068;12.058;2022-11-06T18:55:07;6.30;99.90
10042;DHT22;5061;49.068;12.058;2022-11-06T18:58:28;6.30;99.90
10042;DHT22;5061;49.068;12.058;2022-11-06T19:01:52;6.30;99.90
10042;DHT22;5061;49.068;12.058;2022-11-06T19:05:15;6.30;99.90
10042;DHT22;5061;49.068;12.058;2022-11-06T19:08:35;6.30;99.90
10042;DHT22;5061;49.068;12.058;2022-11-06T19:11:56;6.30;99.90
10042;DHT22;5061;49.068;12.058;2022-11-06T19:15:17;6.40;99.90
10042;DHT22;5061;49.068;12.058;2022-11-06T19:18:38;6.30;99.90
10042;DHT22;5061;49.068;12.058;2022-11-06T19:21:59;6.30;99.90
10042;DHT22;5061;49.068;12.058;2022-11-06T19:25:20;6.40;99.90
10042;DHT22;5061;49.068;12.058;2022-11-06T19:28:42;6.40;99.90
10042;DHT22;5061;49.068;12.058;2022-11-06T19:32:03;6.40;99.90
10042;DHT22;5061;49.068;12.058;2022-11-06T19:35:23;6.40;99.90
10042;DHT22;5061;49.068;12.058;2022-11-06T19:38:44;6.40;99.90
10042;DHT22;5061;49.068;12.058;2022-11-06T19:42:04;6.40;99.90
10042;DHT22;5061;49.068;12.058;2022-11-06T19:45:25;6.40;99.90
10042;DHT22;5061;49.068;12.058;2022-11-06T19:48:46;6.40;99.90
10042;DHT22;5061;49.068;12.058;2022-11-06T19:52:07;6.40;99.90
10042;DHT22;5061;49.068;12.058;2022-11-06T19:55:28;6.50;99.90
10042;DHT22;5061;49.068;12.058;2022-11-06T19:58:48;6.40;99.90
10042;DHT22;5061;49.068;12.058;2022-11-06T20:02:13;6.50;99.90
10042;DHT22;5061;49.068;12.058;2022-11-06T20:05:34;6.50;99.90
10042;DHT22;5061;49.068;12.058;2022-11-06T20:08:55;6.50;99.90
10042;DHT22;5061;49.068;12.058;2022-11-06T20:12:22;6.50;99.90
10042;DHT22;5061;49.068;12.058;2022-11-06T20:15:43;6.50;99.90
10042;DHT22;5061;49.068;12.058;2022-11-06T20:19:03;6.40;99.90
10042;DHT22;5061;49.068;12.058;2022-11-06T20:22:24;6.40;99.90
10042;DHT22;5061;49.068;12.058;2022-11-06T20:25:45;6.40;99.90
10042;DHT22;5061;49.068;12.058;2022-11-06T20:29:05;6.40;99.90
10042;DHT22;5061;49.068;12.058;2022-11-06T20:32:29;6.40;99.90
10042;DHT22;5061;49.068;12.058;2022-11-06T20:35:50;6.40;99.90
10042;DHT22;5061;49.068;12.058;2022-11-06T20:39:10;6.40;99.90
10042;DHT22;5061;49.068;12.058;2022-11-06T20:42:32;6.50;99.90
10042;DHT22;5061;49.068;12.058;2022-11-06T20:45:53;6.50;99.90
10042;DHT22;5061;49.068;12.058;2022-11-06T20:49:13;6.50;99.90
10042;DHT22;5061;49.068;12.058;2022-11-06T20:52:34;6.50;99.90
10042;DHT22;5061;49.068;12.058;2022-11-06T20:55:59;6.40;99.90
10042;DHT22;5061;49.068;12.058;2022-11-06T20:59:21;6.50;99.90
10042;DHT22;5061;49.068;12.058;2022-11-06T21:02:42;6.50;99.90
10042;DHT22;5061;49.068;12.058;2022-11-06T21:06:12;6.50;99.90
10042;DHT22;5061;49.068;12.058;2022-11-06T21:09:33;6.50;99.90
10042;DHT22;5061;49.068;12.058;2022-11-06T21:12:54;6.50;99.90
10042;DHT22;5061;49.068;12.058;2022-11-06T21:16:27;6.50;99.90
10042;DHT22;5061;49.068;12.058;2022-11-06T21:19:48;6.50;99.90
10042;DHT22;5061;49.068;12.058;2022-11-06T21:23:09;6.50;99.90
10042;DHT22;5061;49.068;12.058;2022-11-06T21:26:32;6.50;99.90
10042;DHT22;5061;49.068;12.058;2022-11-06T21:29:52;6.50;99.90
10042;DHT22;5061;49.068;12.058;2022-11-06T21:33:15;6.50;99.90
10042;DHT22;5061;49.068;12.058;2022-11-06T21:36:36;6.50;99.90
10042;DHT22;5061;49.068;12.058;2022-11-06T21:39:58;6.50;99.90
10042;DHT22;5061;49.068;12.058;2022-11-06T21:43:19;6.50;99.90
10042;DHT22;5061;49.068;12.058;2022-11-06T21:46:40;6.50;99.90
10042;DHT22;5061;49.068;12.058;2022-11-06T21:50:01;6.50;99.90
10042;DHT22;5061;49.068;12.058;2022-11-06T21:53:24;6.50;99.90
10042;DHT22;5061;49.068;12.058;2022-11-06T21:57:03;6.50;99.90
10042;DHT22;5061;49.068;12.058;2022-11-06T22:00:23;6.50;99.90
10042;DHT22;5061;49.068;12.058;2022-11-06T22:03:44;6.50;99.90
10042;DHT22;5061;49.068;12.058;2022-11-06T22:07:05;6.50;99.90
10042;DHT22;5061;49.068;12.058;2022-11-06T22:10:26;6.50;99.90
10042;DHT22;5061;49.068;12.058;2022-11-06T22:13:48;6.50;99.90
10042;DHT22;5061;49.068;12.058;2022-11-06T22:17:08;6.50;99.90
10042;DHT22;5061;49.068;12.058;2022-11-06T22:20:29;6.50;99.90
10042;DHT22;5061;49.068;12.058;2022-11-06T22:23:50;6.50;99.90
10042;DHT22;5061;49.068;12.058;2022-11-06T22:27:11;6.50;99.90
10042;DHT22;5061;49.068;12.058;2022-11-06T22:30:31;6.50;99.90
10042;DHT22;5061;49.068;12.058;2022-11-06T22:33:52;6.50;99.90
10042;DHT22;5061;49.068;12.058;2022-11-06T22:37:12;6.50;99.90
10042;DHT22;5061;49.068;12.058;2022-11-06T22:40:33;6.50;99.90
10042;DHT22;5061;49.068;12.058;2022-11-06T22:43:57;6.50;99.90
10042;DHT22;5061;49.068;12.058;2022-11-06T22:47:18;6.60;99.90
10042;DHT22;5061;49.068;12.058;2022-11-06T22:50:39;6.50;99.90
10042;DHT22;5061;49.068;12.058;2022-11-06T22:54:00;6.60;99.90
10042;DHT22;5061;49.068;12.058;2022-11-06T22:57:21;6.50;99.90
10042;DHT22;5061;49.068;12.058;2022-11-06T23:00:41;6.50;99.90
10042;DHT22;5061;49.068;12.058;2022-11-06T23:04:04;6.50;99.90
10042;DHT22;5061;49.068;12.058;2022-11-06T23:07:25;6.60;99.90
10042;DHT22;5061;49.068;12.058;2022-11-06T23:10:45;6.60;99.90
10042;DHT22;5061;49.068;12.058;2022-11-06T23:14:06;6.60;99.90
10042;DHT22;5061;49.068;12.058;2022-11-06T23:17:27;6.60;99.90
10042;DHT22;5061;49.068;12.058;2022-11-06T23:20:47;6.60;99.90
10042;DHT22;5061;49.068;12.058;2022-11-06T23:24:08;6.60;99.90
10042;DHT22;5061;49.068;12.058;2022-11-06T23:27:30;6.60;99.90
10042;DHT22;5061;49.068;12.058;2022-11-06T23:30:50;6.60;99.90
10042;DHT22;5061;49.068;12.058;2022-11-06T23:34:11;6.60;99.90